sensor_id;sensor_type;location;lat;lon;timestamp;pressure;altitude;pressure_sealevel;temperature;humidity
72370;BME280;60343;-32.030;115.880;2024-03-23T00:52:14;103006.97;;;23.50;40.35
72370;BME280;60343;-32.030;115.880;2024-03-23T00:54:43;102997.16;;;23.75;40.27
72370;BME280;60343;-32.030;115.880;2024-03-23T00:57:12;103002.69;;;24.02;40.03
72370;BME280;60343;-32.030;115.880;2024-03-23T00:59:41;102998.75;;;24.17;39.66
72370;BME280;60343;-32.030;115.880;2024-03-23T01:02:10;102993.25;;;24.30;39.14
72370;BME280;60343;-32.030;115.880;2024-03-23T01:04:39;102984.44;;;24.42;38.26
72370;BME280;60343;-32.030;115.880;2024-03-23T01:07:14;102990.94;;;24.47;39.03
72370;BME280;60343;-32.030;115.880;2024-03-23T01:09:43;102987.59;;;24.58;38.08
72370;BME280;60343;-32.030;115.880;2024-03-23T01:12:12;102986.31;;;24.61;38.26
72370;BME280;60343;-32.030;115.880;2024-03-23T01:14:41;102990.91;;;24.87;37.67
72370;BME280;60343;-32.030;115.880;2024-03-23T01:17:10;102988.59;;;24.97;38.09
72370;BME280;60343;-32.030;115.880;2024-03-23T01:19:39;102991.06;;;25.18;36.92
72370;BME280;60343;-32.030;115.880;2024-03-23T01:22:15;102982.53;;;25.39;36.65
72370;BME280;60343;-32.030;115.880;2024-03-23T01:24:44;102974.03;;;25.03;37.18
72370;BME280;60343;-32.030;115.880;2024-03-23T01:27:13;102976.50;;;25.24;36.80
72370;BME280;60343;-32.030;115.880;2024-03-23T01:29:42;102975.28;;;25.51;36.43
72370;BME280;60343;-32.030;115.880;2024-03-23T01:32:11;102961.09;;;25.68;35.73
72370;BME280;60343;-32.030;115.880;2024-03-23T01:34:40;102957.28;;;26.00;36.38
72370;BME280;60343;-32.030;115.880;2024-03-23T01:37:15;102962.50;;;26.08;35.23
72370;BME280;60343;-32.030;115.880;2024-03-23T01:39:44;102956.31;;;25.88;34.86
72370;BME280;60343;-32.030;115.880;2024-03-23T01:42:13;102963.50;;;25.89;35.11
72370;BME280;60343;-32.030;115.880;2024-03-23T01:44:42;102955.31;;;26.07;34.95
72370;BME280;60343;-32.030;115.880;2024-03-23T01:47:12;102960.13;;;26.12;34.72
72370;BME280;60343;-32.030;115.880;2024-03-23T01:49:41;102950.47;;;26.09;34.67
72370;BME280;60343;-32.030;115.880;2024-03-23T01:52:16;102956.28;;;25.94;34.80
72370;BME280;60343;-32.030;115.880;2024-03-23T01:54:45;102946.56;;;25.92;35.29
72370;BME280;60343;-32.030;115.880;2024-03-23T01:57:15;102956.66;;;25.98;35.33
72370;BME280;60343;-32.030;115.880;2024-03-23T01:59:44;102952.38;;;26.09;34.68
72370;BME280;60343;-32.030;115.880;2024-03-23T02:02:13;102947.53;;;26.35;34.43
72370;BME280;60343;-32.030;115.880;2024-03-23T02:04:42;102946.81;;;26.65;34.28
72370;BME280;60343;-32.030;115.880;2024-03-23T02:07:17;102939.81;;;26.87;33.48
72370;BME280;60343;-32.030;115.880;2024-03-23T02:09:47;102926.38;;;26.97;33.40
72370;BME280;60343;-32.030;115.880;2024-03-23T02:12:16;102923.53;;;26.85;33.52
72370;BME280;60343;-32.030;115.880;2024-03-23T02:14:45;102924.81;;;26.65;33.42
72370;BME280;60343;-32.030;115.880;2024-03-23T02:17:14;102913.16;;;26.26;33.86
72370;BME280;60343;-32.030;115.880;2024-03-23T02:19:43;102920.88;;;26.36;34.38
72370;BME280;60343;-32.030;115.880;2024-03-23T02:22:19;102909.56;;;26.87;33.54
72370;BME280;60343;-32.030;115.880;2024-03-23T02:24:53;102922.25;;;26.88;33.01
72370;BME280;60343;-32.030;115.880;2024-03-23T02:27:22;102921.91;;;26.78;32.97
72370;BME280;60343;-32.030;115.880;2024-03-23T02:29:53;102919.91;;;26.48;33.39
72370;BME280;60343;-32.030;115.880;2024-03-23T02:32:22;102915.06;;;26.69;33.59
72370;BME280;60343;-32.030;115.880;2024-03-23T02:34:51;102911.41;;;26.93;33.08
72370;BME280;60343;-32.030;115.880;2024-03-23T02:37:20;102919.53;;;27.36;32.27
72370;BME280;60343;-32.030;115.880;2024-03-23T02:39:55;102911.22;;;27.24;32.26
72370;BME280;60343;-32.030;115.880;2024-03-23T02:42:24;102905.97;;;27.53;31.94
72370;BME280;60343;-32.030;115.880;2024-03-23T02:44:53;102912.69;;;27.57;31.78
72370;BME280;60343;-32.030;115.880;2024-03-23T02:47:22;102902.84;;;27.49;31.62
72370;BME280;60343;-32.030;115.880;2024-03-23T02:49:51;102900.53;;;27.76;32.07
72370;BME280;60343;-32.030;115.880;2024-03-23T02:52:20;102899.00;;;28.03;31.77
72370;BME280;60343;-32.030;115.880;2024-03-23T02:54:55;102904.31;;;28.28;30.91
72370;BME280;60343;-32.030;115.880;2024-03-23T02:57:25;102891.28;;;28.35;30.74
72370;BME280;60343;-32.030;115.880;2024-03-23T02:59:54;102891.63;;;28.50;30.79
72370;BME280;60343;-32.030;115.880;2024-03-23T03:02:23;102891.16;;;28.42;29.42
72370;BME280;60343;-32.030;115.880;2024-03-23T03:04:52;102898.66;;;28.00;29.97
72370;BME280;60343;-32.030;115.880;2024-03-23T03:07:22;102904.28;;;27.93;30.82
72370;BME280;60343;-32.030;115.880;2024-03-23T03:09:57;102891.19;;;27.77;30.98
72370;BME280;60343;-32.030;115.880;2024-03-23T03:12:26;102892.47;;;27.63;30.88
72370;BME280;60343;-32.030;115.880;2024-03-23T03:14:55;102884.03;;;27.88;30.57
72370;BME280;60343;-32.030;115.880;2024-03-23T03:17:24;102885.44;;;27.79;30.20
72370;BME280;60343;-32.030;115.880;2024-03-23T03:19:53;102885.91;;;27.64;30.52
72370;BME280;60343;-32.030;115.880;2024-03-23T03:22:23;102876.09;;;27.68;30.30
72370;BME280;60343;-32.030;115.880;2024-03-23T03:24:58;102869.75;;;27.56;31.03
72370;BME280;60343;-32.030;115.880;2024-03-23T03:27:27;102862.47;;;27.61;31.81
72370;BME280;60343;-32.030;115.880;2024-03-23T03:29:56;102869.19;;;27.36;31.85
72370;BME280;60343;-32.030;115.880;2024-03-23T03:32:25;102847.72;;;27.56;31.80
72370;BME280;60343;-32.030;115.880;2024-03-23T03:34:54;102861.13;;;27.64;30.75
72370;BME280;60343;-32.030;115.880;2024-03-23T03:37:23;102852.97;;;27.57;30.15
72370;BME280;60343;-32.030;115.880;2024-03-23T03:39:58;102854.16;;;27.50;30.81
72370;BME280;60343;-32.030;115.880;2024-03-23T03:42:27;102844.59;;;27.52;30.48
72370;BME280;60343;-32.030;115.880;2024-03-23T03:44:56;102831.84;;;27.40;30.39
72370;BME280;60343;-32.030;115.880;2024-03-23T03:47:25;102833.91;;;27.44;30.52
72370;BME280;60343;-32.030;115.880;2024-03-23T03:49:55;102836.38;;;27.64;30.76
72370;BME280;60343;-32.030;115.880;2024-03-23T03:52:24;102832.09;;;27.91;30.56
72370;BME280;60343;-32.030;115.880;2024-03-23T03:55:02;102832.22;;;28.20;29.96
72370;BME280;60343;-32.030;115.880;2024-03-23T03:57:31;102836.16;;;28.24;29.30
72370;BME280;60343;-32.030;115.880;2024-03-23T04:00:00;102820.59;;;28.29;29.67
72370;BME280;60343;-32.030;115.880;2024-03-23T04:02:29;102820.25;;;28.26;28.58
72370;BME280;60343;-32.030;115.880;2024-03-23T04:04:58;102808.50;;;28.19;29.49
72370;BME280;60343;-32.030;115.880;2024-03-23T04:07:27;102819.75;;;28.40;28.40
72370;BME280;60343;-32.030;115.880;2024-03-23T04:10:02;102808.59;;;28.47;28.29
72370;BME280;60343;-32.030;115.880;2024-03-23T04:12:31;102802.31;;;28.75;28.17
72370;BME280;60343;-32.030;115.880;2024-03-23T04:15:01;102814.72;;;28.89;27.46
72370;BME280;60343;-32.030;115.880;2024-03-23T04:17:30;102803.56;;;28.44;27.55
72370;BME280;60343;-32.030;115.880;2024-03-23T04:20:00;102805.84;;;28.35;27.04
72370;BME280;60343;-32.030;115.880;2024-03-23T04:22:29;102796.84;;;28.51;27.31
72370;BME280;60343;-32.030;115.880;2024-03-23T04:25:05;102802.19;;;28.58;27.33
72370;BME280;60343;-32.030;115.880;2024-03-23T04:27:35;102786.72;;;28.57;28.07
72370;BME280;60343;-32.030;115.880;2024-03-23T04:30:05;102790.69;;;28.61;28.16
72370;BME280;60343;-32.030;115.880;2024-03-23T04:32:34;102785.66;;;28.58;28.15
72370;BME280;60343;-32.030;115.880;2024-03-23T04:35:03;102786.03;;;28.62;28.07
72370;BME280;60343;-32.030;115.880;2024-03-23T04:37:34;102767.25;;;28.47;27.69
72370;BME280;60343;-32.030;115.880;2024-03-23T04:40:10;102771.84;;;28.30;28.07
72370;BME280;60343;-32.030;115.880;2024-03-23T04:42:39;102764.94;;;28.15;28.08
72370;BME280;60343;-32.030;115.880;2024-03-23T04:45:09;102769.19;;;28.35;27.99
72370;BME280;60343;-32.030;115.880;2024-03-23T04:47:38;102758.31;;;28.28;28.17
72370;BME280;60343;-32.030;115.880;2024-03-23T04:50:09;102755.94;;;28.32;28.00
72370;BME280;60343;-32.030;115.880;2024-03-23T04:52:39;102752.97;;;28.22;28.21
72370;BME280;60343;-32.030;115.880;2024-03-23T04:55:14;102745.13;;;28.30;27.61
72370;BME280;60343;-32.030;115.880;2024-03-23T04:57:43;102748.03;;;28.52;27.43
72370;BME280;60343;-32.030;115.880;2024-03-23T05:00:13;102750.63;;;28.42;28.04
72370;BME280;60343;-32.030;115.880;2024-03-23T05:02:46;102745.94;;;28.42;27.63
72370;BME280;60343;-32.030;115.880;2024-03-23T05:05:15;102744.50;;;28.40;27.72
72370;BME280;60343;-32.030;115.880;2024-03-23T05:07:44;102733.50;;;28.40;28.19
72370;BME280;60343;-32.030;115.880;2024-03-23T05:10:19;102729.56;;;28.36;28.87
72370;BME280;60343;-32.030;115.880;2024-03-23T05:12:48;102721.88;;;28.38;27.35
72370;BME280;60343;-32.030;115.880;2024-03-23T05:15:17;102722.66;;;28.50;27.62
72370;BME280;60343;-32.030;115.880;2024-03-23T05:17:46;102715.75;;;28.76;26.97
72370;BME280;60343;-32.030;115.880;2024-03-23T05:20:15;102720.28;;;28.82;26.86
72370;BME280;60343;-32.030;115.880;2024-03-23T05:22:44;102709.44;;;28.92;26.49
72370;BME280;60343;-32.030;115.880;2024-03-23T05:25:19;102694.63;;;28.81;26.62
72370;BME280;60343;-32.030;115.880;2024-03-23T05:27:48;102697.88;;;28.78;26.53
72370;BME280;60343;-32.030;115.880;2024-03-23T05:30:18;102696.47;;;28.92;27.01
72370;BME280;60343;-32.030;115.880;2024-03-23T05:32:47;102692.47;;;29.00;26.12
72370;BME280;60343;-32.030;115.880;2024-03-23T05:35:16;102685.28;;;28.99;26.59
72370;BME280;60343;-32.030;115.880;2024-03-23T05:37:45;102679.69;;;28.94;27.01
72370;BME280;60343;-32.030;115.880;2024-03-23T05:40:20;102679.69;;;29.11;25.84
72370;BME280;60343;-32.030;115.880;2024-03-23T05:42:49;102683.13;;;29.01;25.77
72370;BME280;60343;-32.030;115.880;2024-03-23T05:45:18;102666.22;;;28.97;26.02
72370;BME280;60343;-32.030;115.880;2024-03-23T05:47:47;102668.50;;;29.00;26.33
72370;BME280;60343;-32.030;115.880;2024-03-23T05:50:16;102674.50;;;29.14;26.64
72370;BME280;60343;-32.030;115.880;2024-03-23T05:52:45;102667.16;;;29.20;26.07
72370;BME280;60343;-32.030;115.880;2024-03-23T05:55:20;102670.41;;;29.17;25.43
72370;BME280;60343;-32.030;115.880;2024-03-23T05:57:49;102658.03;;;29.02;26.30
72370;BME280;60343;-32.030;115.880;2024-03-23T06:00:19;102661.06;;;29.01;25.58
72370;BME280;60343;-32.030;115.880;2024-03-23T06:02:48;102653.88;;;29.00;25.90
72370;BME280;60343;-32.030;115.880;2024-03-23T06:05:17;102647.25;;;29.18;25.61
72370;BME280;60343;-32.030;115.880;2024-03-23T06:07:46;102643.19;;;29.37;26.05
72370;BME280;60343;-32.030;115.880;2024-03-23T06:10:21;102638.06;;;29.46;25.56
72370;BME280;60343;-32.030;115.880;2024-03-23T06:12:50;102635.38;;;29.51;25.74
72370;BME280;60343;-32.030;115.880;2024-03-23T06:15:19;102636.84;;;29.58;25.52
72370;BME280;60343;-32.030;115.880;2024-03-23T06:17:48;102619.78;;;29.61;25.55
72370;BME280;60343;-32.030;115.880;2024-03-23T06:20:17;102624.06;;;29.91;25.63
72370;BME280;60343;-32.030;115.880;2024-03-23T06:22:46;102617.28;;;30.03;25.26
72370;BME280;60343;-32.030;115.880;2024-03-23T06:25:21;102621.69;;;30.26;25.13
72370;BME280;60343;-32.030;115.880;2024-03-23T06:27:50;102617.47;;;30.45;25.00
72370;BME280;60343;-32.030;115.880;2024-03-23T06:30:19;102615.69;;;30.88;24.42
72370;BME280;60343;-32.030;115.880;2024-03-23T06:32:49;102608.38;;;31.56;24.24
72370;BME280;60343;-32.030;115.880;2024-03-23T06:35:18;102607.56;;;32.12;23.10
72370;BME280;60343;-32.030;115.880;2024-03-23T06:37:47;102611.53;;;31.74;22.95
72370;BME280;60343;-32.030;115.880;2024-03-23T06:40:22;102598.53;;;31.80;23.43
72370;BME280;60343;-32.030;115.880;2024-03-23T06:42:51;102600.53;;;31.32;23.52
72370;BME280;60343;-32.030;115.880;2024-03-23T06:45:20;102599.53;;;31.06;23.19
72370;BME280;60343;-32.030;115.880;2024-03-23T06:47:50;102609.78;;;30.79;24.16
72370;BME280;60343;-32.030;115.880;2024-03-23T06:50:19;102602.78;;;30.66;24.24
72370;BME280;60343;-32.030;115.880;2024-03-23T06:52:49;102591.44;;;30.41;25.31
72370;BME280;60343;-32.030;115.880;2024-03-23T06:55:24;102594.94;;;30.58;24.54
72370;BME280;60343;-32.030;115.880;2024-03-23T06:57:53;102595.00;;;31.00;24.39
72370;BME280;60343;-32.030;115.880;2024-03-23T07:00:22;102590.09;;;31.54;23.38
72370;BME280;60343;-32.030;115.880;2024-03-23T07:02:51;102592.31;;;31.52;23.52
72370;BME280;60343;-32.030;115.880;2024-03-23T07:05:20;102587.94;;;31.57;23.99
72370;BME280;60343;-32.030;115.880;2024-03-23T07:07:49;102589.56;;;31.52;23.17
72370;BME280;60343;-32.030;115.880;2024-03-23T07:10:24;102586.72;;;31.42;24.24
72370;BME280;60343;-32.030;115.880;2024-03-23T07:12:53;102589.97;;;31.29;24.17
72370;BME280;60343;-32.030;115.880;2024-03-23T07:15:22;102587.13;;;30.82;25.13
72370;BME280;60343;-32.030;115.880;2024-03-23T07:17:51;102587.84;;;30.67;24.61
72370;BME280;60343;-32.030;115.880;2024-03-23T07:20:21;102594.94;;;30.32;24.96
72370;BME280;60343;-32.030;115.880;2024-03-23T07:22:50;102585.38;;;29.91;24.81
72370;BME280;60343;-32.030;115.880;2024-03-23T07:25:25;102583.75;;;29.73;25.47
72370;BME280;60343;-32.030;115.880;2024-03-23T07:27:55;102591.91;;;29.63;25.76
72370;BME280;60343;-32.030;115.880;2024-03-23T07:30:24;102584.78;;;29.45;26.02
72370;BME280;60343;-32.030;115.880;2024-03-23T07:32:53;102572.66;;;29.29;26.16
72370;BME280;60343;-32.030;115.880;2024-03-23T07:35:22;102582.16;;;29.00;26.28
72370;BME280;60343;-32.030;115.880;2024-03-23T07:37:51;102579.56;;;28.93;26.86
72370;BME280;60343;-32.030;115.880;2024-03-23T07:40:26;102583.41;;;28.92;27.48
72370;BME280;60343;-32.030;115.880;2024-03-23T07:42:55;102582.91;;;28.79;27.31
72370;BME280;60343;-32.030;115.880;2024-03-23T07:45:24;102582.94;;;28.67;26.95
72370;BME280;60343;-32.030;115.880;2024-03-23T07:47:53;102593.25;;;28.55;26.18
72370;BME280;60343;-32.030;115.880;2024-03-23T07:50:22;102587.53;;;28.45;26.55
72370;BME280;60343;-32.030;115.880;2024-03-23T07:52:51;102577.50;;;28.39;27.11
72370;BME280;60343;-32.030;115.880;2024-03-23T07:55:26;102579.69;;;28.37;27.59
72370;BME280;60343;-32.030;115.880;2024-03-23T07:57:55;102572.31;;;28.42;27.80
72370;BME280;60343;-32.030;115.880;2024-03-23T08:00:24;102576.34;;;28.35;28.01
72370;BME280;60343;-32.030;115.880;2024-03-23T08:02:53;102574.84;;;28.44;27.95
72370;BME280;60343;-32.030;115.880;2024-03-23T08:05:22;102570.50;;;28.48;27.20
72370;BME280;60343;-32.030;115.880;2024-03-23T08:07:54;102575.63;;;28.56;27.34
72370;BME280;60343;-32.030;115.880;2024-03-23T08:10:29;102577.03;;;28.58;26.95
72370;BME280;60343;-32.030;115.880;2024-03-23T08:12:58;102579.88;;;28.47;26.98
72370;BME280;60343;-32.030;115.880;2024-03-23T08:15:29;102576.19;;;28.41;26.98
72370;BME280;60343;-32.030;115.880;2024-03-23T08:17:58;102572.59;;;28.41;27.23
72370;BME280;60343;-32.030;115.880;2024-03-23T08:20:27;102570.16;;;28.44;26.65
72370;BME280;60343;-32.030;115.880;2024-03-23T08:22:56;102572.50;;;28.52;26.90
72370;BME280;60343;-32.030;115.880;2024-03-23T08:25:32;102571.75;;;28.57;26.63
72370;BME280;60343;-32.030;115.880;2024-03-23T08:28:01;102572.50;;;28.52;26.93
72370;BME280;60343;-32.030;115.880;2024-03-23T08:30:30;102579.78;;;28.42;27.06
72370;BME280;60343;-32.030;115.880;2024-03-23T08:32:59;102573.25;;;28.31;27.49
72370;BME280;60343;-32.030;115.880;2024-03-23T08:35:28;102575.66;;;28.28;26.97
72370;BME280;60343;-32.030;115.880;2024-03-23T08:37:57;102575.66;;;28.28;27.74
72370;BME280;60343;-32.030;115.880;2024-03-23T08:40:32;102566.81;;;28.26;26.89
72370;BME280;60343;-32.030;115.880;2024-03-23T08:43:02;102581.56;;;28.20;26.69
72370;BME280;60343;-32.030;115.880;2024-03-23T08:45:30;102578.13;;;28.12;26.95
72370;BME280;60343;-32.030;115.880;2024-03-23T08:48:00;102568.78;;;28.13;26.62
72370;BME280;60343;-32.030;115.880;2024-03-23T08:50:29;102577.16;;;28.07;26.73
72370;BME280;60343;-32.030;115.880;2024-03-23T08:52:58;102582.94;;;28.05;27.48
72370;BME280;60343;-32.030;115.880;2024-03-23T08:55:33;102576.25;;;28.01;27.35
72370;BME280;60343;-32.030;115.880;2024-03-23T08:58:02;102574.28;;;28.02;26.84
72370;BME280;60343;-32.030;115.880;2024-03-23T09:00:31;102572.78;;;27.94;27.15
72370;BME280;60343;-32.030;115.880;2024-03-23T09:03:00;102582.03;;;27.88;26.94
72370;BME280;60343;-32.030;115.880;2024-03-23T09:05:30;102586.94;;;27.86;27.33
72370;BME280;60343;-32.030;115.880;2024-03-23T09:07:59;102584.34;;;27.80;27.83
72370;BME280;60343;-32.030;115.880;2024-03-23T09:10:37;102589.59;;;27.81;27.81
72370;BME280;60343;-32.030;115.880;2024-03-23T09:13:06;102583.34;;;27.86;27.72
72370;BME280;60343;-32.030;115.880;2024-03-23T09:15:37;102589.22;;;27.78;28.15
72370;BME280;60343;-32.030;115.880;2024-03-23T09:18:07;102595.13;;;27.69;28.48
72370;BME280;60343;-32.030;115.880;2024-03-23T09:20:36;102593.31;;;27.75;28.32
72370;BME280;60343;-32.030;115.880;2024-03-23T09:23:05;102600.97;;;27.73;28.11
72370;BME280;60343;-32.030;115.880;2024-03-23T09:25:43;102596.09;;;27.63;27.84
72370;BME280;60343;-32.030;115.880;2024-03-23T09:28:12;102599.19;;;27.67;27.57
72370;BME280;60343;-32.030;115.880;2024-03-23T09:30:42;102604.25;;;27.58;27.97
72370;BME280;60343;-32.030;115.880;2024-03-23T09:33:11;102602.72;;;27.51;27.92
72370;BME280;60343;-32.030;115.880;2024-03-23T09:35:41;102600.03;;;27.44;28.30
72370;BME280;60343;-32.030;115.880;2024-03-23T09:38:10;102595.28;;;27.40;28.02
72370;BME280;60343;-32.030;115.880;2024-03-23T09:40:50;102602.81;;;27.32;28.29
72370;BME280;60343;-32.030;115.880;2024-03-23T09:43:21;102605.94;;;27.24;28.43
72370;BME280;60343;-32.030;115.880;2024-03-23T09:45:50;102602.00;;;27.20;28.47
72370;BME280;60343;-32.030;115.880;2024-03-23T09:48:20;102592.88;;;27.08;28.89
72370;BME280;60343;-32.030;115.880;2024-03-23T09:50:49;102603.53;;;27.05;29.24
72370;BME280;60343;-32.030;115.880;2024-03-23T09:53:18;102596.34;;;27.04;28.85
72370;BME280;60343;-32.030;115.880;2024-03-23T09:55:54;102603.63;;;26.98;28.98
72370;BME280;60343;-32.030;115.880;2024-03-23T09:58:24;102600.88;;;26.86;29.60
72370;BME280;60343;-32.030;115.880;2024-03-23T10:00:53;102602.63;;;26.81;29.21
72370;BME280;60343;-32.030;115.880;2024-03-23T10:03:23;102598.09;;;26.75;29.56
72370;BME280;60343;-32.030;115.880;2024-03-23T10:06:01;102594.16;;;26.71;29.46
72370;BME280;60343;-32.030;115.880;2024-03-23T10:08:33;102593.53;;;26.69;29.42
72370;BME280;60343;-32.030;115.880;2024-03-23T10:11:13;102594.22;;;26.53;29.84
72370;BME280;60343;-32.030;115.880;2024-03-23T10:13:44;102603.03;;;26.43;29.86
72370;BME280;60343;-32.030;115.880;2024-03-23T10:16:21;102607.31;;;26.39;30.14
72370;BME280;60343;-32.030;115.880;2024-03-23T10:18:51;102604.09;;;26.42;29.78
72370;BME280;60343;-32.030;115.880;2024-03-23T10:21:20;102608.38;;;26.38;29.81
72370;BME280;60343;-32.030;115.880;2024-03-23T10:23:49;102602.28;;;26.36;29.75
72370;BME280;60343;-32.030;115.880;2024-03-23T10:26:24;102616.34;;;26.28;30.03
72370;BME280;60343;-32.030;115.880;2024-03-23T10:28:54;102612.63;;;26.22;30.02
72370;BME280;60343;-32.030;115.880;2024-03-23T10:31:25;102614.91;;;26.25;30.37
72370;BME280;60343;-32.030;115.880;2024-03-23T10:33:55;102623.44;;;26.17;30.21
72370;BME280;60343;-32.030;115.880;2024-03-23T10:36:24;102618.13;;;26.04;30.64
72370;BME280;60343;-32.030;115.880;2024-03-23T10:38:55;102621.03;;;25.73;31.26
72370;BME280;60343;-32.030;115.880;2024-03-23T10:41:33;102631.50;;;25.64;31.16
72370;BME280;60343;-32.030;115.880;2024-03-23T10:44:03;102629.59;;;25.65;31.23
72370;BME280;60343;-32.030;115.880;2024-03-23T10:46:33;102641.25;;;25.60;31.19
72370;BME280;60343;-32.030;115.880;2024-03-23T10:49:02;102651.28;;;25.66;31.08
72370;BME280;60343;-32.030;115.880;2024-03-23T10:51:32;102641.41;;;25.65;30.93
72370;BME280;60343;-32.030;115.880;2024-03-23T10:54:05;102634.44;;;25.62;31.05
72370;BME280;60343;-32.030;115.880;2024-03-23T10:56:41;102643.84;;;25.73;30.65
72370;BME280;60343;-32.030;115.880;2024-03-23T10:59:11;102652.81;;;25.62;31.04
72370;BME280;60343;-32.030;115.880;2024-03-23T11:01:55;102656.03;;;25.59;30.87
72370;BME280;60343;-32.030;115.880;2024-03-23T11:04:34;102666.66;;;25.49;31.14
72370;BME280;60343;-32.030;115.880;2024-03-23T11:07:03;102656.56;;;25.43;31.33
72370;BME280;60343;-32.030;115.880;2024-03-23T11:09:53;102663.75;;;25.44;31.03
72370;BME280;60343;-32.030;115.880;2024-03-23T11:12:34;102657.03;;;25.40;31.26
72370;BME280;60343;-32.030;115.880;2024-03-23T11:15:05;102667.59;;;25.36;31.00
72370;BME280;60343;-32.030;115.880;2024-03-23T11:17:35;102671.31;;;25.24;31.37
72370;BME280;60343;-32.030;115.880;2024-03-23T11:20:05;102673.66;;;25.20;31.48
72370;BME280;60343;-32.030;115.880;2024-03-23T11:22:44;102675.41;;;25.14;31.70
72370;BME280;60343;-32.030;115.880;2024-03-23T11:25:20;102684.69;;;25.13;31.50
72370;BME280;60343;-32.030;115.880;2024-03-23T11:27:56;102677.56;;;25.06;31.96
72370;BME280;60343;-32.030;115.880;2024-03-23T11:30:26;102687.09;;;25.03;31.86
72370;BME280;60343;-32.030;115.880;2024-03-23T11:32:57;102690.88;;;25.02;31.63
72370;BME280;60343;-32.030;115.880;2024-03-23T11:35:30;102694.28;;;24.98;31.91
72370;BME280;60343;-32.030;115.880;2024-03-23T11:38:08;102694.97;;;24.87;32.23
72370;BME280;60343;-32.030;115.880;2024-03-23T11:40:38;102700.66;;;24.92;31.91
72370;BME280;60343;-32.030;115.880;2024-03-23T11:43:14;102699.22;;;24.83;31.97
72370;BME280;60343;-32.030;115.880;2024-03-23T11:45:46;102691.38;;;24.93;31.73
72370;BME280;60343;-32.030;115.880;2024-03-23T11:48:19;102704.91;;;24.88;31.69
72370;BME280;60343;-32.030;115.880;2024-03-23T11:50:49;102706.81;;;24.80;32.02
72370;BME280;60343;-32.030;115.880;2024-03-23T11:53:19;102701.94;;;24.89;31.71
72370;BME280;60343;-32.030;115.880;2024-03-23T11:55:50;102706.13;;;24.92;31.94
72370;BME280;60343;-32.030;115.880;2024-03-23T11:58:26;102716.88;;;24.87;31.74
72370;BME280;60343;-32.030;115.880;2024-03-23T12:00:57;102717.94;;;24.86;31.78
72370;BME280;60343;-32.030;115.880;2024-03-23T12:03:27;102725.19;;;24.73;32.25
72370;BME280;60343;-32.030;115.880;2024-03-23T12:05:57;102720.03;;;24.52;32.78
72370;BME280;60343;-32.030;115.880;2024-03-23T12:08:30;102728.63;;;24.62;32.48
72370;BME280;60343;-32.030;115.880;2024-03-23T12:11:07;102716.66;;;24.50;32.65
72370;BME280;60343;-32.030;115.880;2024-03-23T12:13:42;102732.78;;;24.27;32.91
72370;BME280;60343;-32.030;115.880;2024-03-23T12:16:13;102731.72;;;24.15;33.21
72370;BME280;60343;-32.030;115.880;2024-03-23T12:18:43;102728.38;;;24.26;33.19
72370;BME280;60343;-32.030;115.880;2024-03-23T12:21:13;102729.66;;;24.17;33.15
72370;BME280;60343;-32.030;115.880;2024-03-23T12:23:43;102733.03;;;24.12;33.71
72370;BME280;60343;-32.030;115.880;2024-03-23T12:26:12;102740.63;;;24.17;33.22
72370;BME280;60343;-32.030;115.880;2024-03-23T12:28:47;102733.47;;;23.96;33.89
72370;BME280;60343;-32.030;115.880;2024-03-23T12:31:17;102737.34;;;23.69;34.76
72370;BME280;60343;-32.030;115.880;2024-03-23T12:33:46;102746.59;;;23.48;34.90
72370;BME280;60343;-32.030;115.880;2024-03-23T12:36:15;102747.41;;;23.55;34.32
72370;BME280;60343;-32.030;115.880;2024-03-23T12:38:44;102750.81;;;23.57;34.40
72370;BME280;60343;-32.030;115.880;2024-03-23T12:41:13;102751.19;;;23.41;35.33
72370;BME280;60343;-32.030;115.880;2024-03-23T12:43:48;102748.47;;;23.28;34.92
72370;BME280;60343;-32.030;115.880;2024-03-23T12:46:17;102756.63;;;23.21;35.45
72370;BME280;60343;-32.030;115.880;2024-03-23T12:48:46;102760.88;;;23.24;35.13
72370;BME280;60343;-32.030;115.880;2024-03-23T12:51:15;102759.59;;;23.13;35.55
72370;BME280;60343;-32.030;115.880;2024-03-23T12:53:44;102758.94;;;23.24;34.91
72370;BME280;60343;-32.030;115.880;2024-03-23T12:56:14;102757.91;;;23.25;35.09
72370;BME280;60343;-32.030;115.880;2024-03-23T12:58:49;102755.00;;;23.46;34.58
72370;BME280;60343;-32.030;115.880;2024-03-23T13:01:18;102759.84;;;23.51;34.41
72370;BME280;60343;-32.030;115.880;2024-03-23T13:03:48;102770.97;;;23.43;34.89
72370;BME280;60343;-32.030;115.880;2024-03-23T13:06:18;102763.41;;;23.45;34.70
72370;BME280;60343;-32.030;115.880;2024-03-23T13:08:47;102763.00;;;23.61;34.56
72370;BME280;60343;-32.030;115.880;2024-03-23T13:11:18;102768.06;;;23.58;34.53
72370;BME280;60343;-32.030;115.880;2024-03-23T13:13:53;102764.06;;;23.47;34.72
72370;BME280;60343;-32.030;115.880;2024-03-23T13:16:22;102764.44;;;23.31;35.22
72370;BME280;60343;-32.030;115.880;2024-03-23T13:18:51;102765.25;;;23.25;34.87
72370;BME280;60343;-32.030;115.880;2024-03-23T13:21:20;102765.50;;;23.43;34.75
72370;BME280;60343;-32.030;115.880;2024-03-23T13:23:49;102764.63;;;23.36;35.00
72370;BME280;60343;-32.030;115.880;2024-03-23T13:26:18;102765.28;;;23.18;35.42
72370;BME280;60343;-32.030;115.880;2024-03-23T13:28:53;102763.81;;;23.42;34.61